CheckWX is a tool to help pilots better visualize weather data.  It is not intended as a substitute for an official pre-flight weather briefing.

21:38:17 UTC

KDIJ TAF
Driggs-Reed Memorial Airport
Driggs, Idaho, USA
KDIJ 201720Z 2018/2118 19010KT 6SM -SN OVC035 TEMPO 2019/2023 3SM -SN OVC025 FM210100 VRB05KT P6SM VCSH SCT025 OVC040 FM210700 VRB05KT P6SM SCT030 BKN070 FM211400 VRB05KT P6SM SCT120 AMD LTD TO CLD VIS AND WIND

Feb-20@
18:00 UTC

Feb-20 @ 18:00 UTC

Feb-21@
01:00 UTC

Feb-21 @ 01:00 UTC

KDIJ 201720Z 2018/2118 19010KT 6SM -SN OVC035
Wind
  • 190° at 10 KTS
Visibility
9,656 meters
Conditions
Light Snow
Cloud Levels
  • Overcast at 3,500' AGL

Feb-20@
19:00 UTC

Feb-20 @ 19:00 UTC

Feb-20@
23:00 UTC

Feb-20 @ 23:00 UTC

TEMPO 2019/2023 3SM -SN OVC025

Temporary

TemporaryChanges expected for less than half the time period

Visibility
4,828 meters
Conditions
Light Snow
Cloud Levels
  • Overcast at 2,500' AGL

Feb-21@
01:00 UTC

Feb-21 @ 01:00 UTC

Feb-21@
07:00 UTC

Feb-21 @ 07:00 UTC

FM210100 VRB05KT P6SM VCSH SCT025 OVC040

From

FromStandard forecast or significant change

Wind
  • Variable at 5 KTS
Visibility
10,000+ meters
Cloud Levels
  • Scattered at 2,500' AGL
  • Overcast at 4,000' AGL

Feb-21@
07:00 UTC

Feb-21 @ 07:00 UTC

Feb-21@
14:00 UTC

Feb-21 @ 14:00 UTC

FM210700 VRB05KT P6SM SCT030 BKN070

From

FromStandard forecast or significant change

Wind
  • Variable at 5 KTS
Visibility
10,000+ meters
Cloud Levels
  • Scattered at 3,000' AGL
  • Broken at 7,000' AGL

Feb-21@
14:00 UTC

Feb-21 @ 14:00 UTC

Feb-21@
18:00 UTC

Feb-21 @ 18:00 UTC

FM211400 VRB05KT P6SM SCT120 AMD LTD TO CLD VIS AND WIND

From

FromStandard forecast or significant change

Wind
  • Variable at 5 KTS
Visibility
10,000+ meters
Cloud Levels
  • Scattered at 12,000' AGL